KR-0312 weather

Minak Lotte Castle Giant Apartment Complex Heliports
Busan, Busan Gwang'yeogsi, South Korea

Public forecast

Using degrees Celsius for public forecast. Weather courtesy of forecast.io.

Closest aviation weather report (METAR) to Minak Lotte Castle Giant Apartment Complex Heliports

Closest report is Gimhae International Airport, 9.7 nm (17.9 km) W. Retrieved 2019/10/23 19:00 UTC (14 minutes ago):

RKPK 231900Z 36008KT 9999 FEW040 BKN100 18/10 Q1018

Closest aviation forecast (TAF) to Minak Lotte Castle Giant Apartment Complex Heliports

Closest forecast is Gimhae International Airport, 9.7 nm (17.9 km) W. Retrieved 2019/10/23 18:00 UTC (1 hour ago):

TAF RKPK 231700Z 2318/2424 03008KT 9999 SCT030 BKN100 TN16/2320Z TX21/2406Z TEMPO 2400/2409 4800 -RA BR BKN030 OVC100 BECMG 2411/2412 03006KT 9999 SCT030